sensor_id;sensor_type;location;lat;lon;timestamp;pressure;altitude;pressure_sealevel;temperature
64916;BMP280;51427;-27.442;153.014;2023-07-13T00:00:36;102822.03;;;18.91
64916;BMP280;51427;-27.442;153.014;2023-07-13T00:03:04;102819.53;;;18.89
64916;BMP280;51427;-27.442;153.014;2023-07-13T00:05:31;102816.97;;;19.09
64916;BMP280;51427;-27.442;153.014;2023-07-13T00:07:59;102827.25;;;19.06
64916;BMP280;51427;-27.442;153.014;2023-07-13T00:10:26;102820.22;;;19.48
64916;BMP280;51427;-27.442;153.014;2023-07-13T00:12:53;102820.22;;;20.01
64916;BMP280;51427;-27.442;153.014;2023-07-13T00:15:26;102825.16;;;19.69
64916;BMP280;51427;-27.442;153.014;2023-07-13T00:17:54;102821.53;;;19.73
64916;BMP280;51427;-27.442;153.014;2023-07-13T00:20:24;102826.69;;;19.54
64916;BMP280;51427;-27.442;153.014;2023-07-13T00:22:52;102822.38;;;19.73
64916;BMP280;51427;-27.442;153.014;2023-07-13T00:25:24;102814.19;;;19.85
64916;BMP280;51427;-27.442;153.014;2023-07-13T00:27:54;102817.81;;;19.98
64916;BMP280;51427;-27.442;153.014;2023-07-13T00:30:22;102819.00;;;19.91
64916;BMP280;51427;-27.442;153.014;2023-07-13T00:32:49;102809.97;;;19.67
64916;BMP280;51427;-27.442;153.014;2023-07-13T00:35:17;102810.41;;;19.94
64916;BMP280;51427;-27.442;153.014;2023-07-13T00:37:45;102804.78;;;20.04
64916;BMP280;51427;-27.442;153.014;2023-07-13T00:40:14;102810.16;;;20.15
64916;BMP280;51427;-27.442;153.014;2023-07-13T00:42:41;102812.22;;;19.73
64916;BMP280;51427;-27.442;153.014;2023-07-13T00:47:40;102794.91;;;20.32
64916;BMP280;51427;-27.442;153.014;2023-07-13T00:50:11;102798.97;;;20.19
64916;BMP280;51427;-27.442;153.014;2023-07-13T00:52:43;102786.25;;;20.19
64916;BMP280;51427;-27.442;153.014;2023-07-13T00:55:12;102782.34;;;20.29
64916;BMP280;51427;-27.442;153.014;2023-07-13T00:57:41;102780.53;;;20.47
64916;BMP280;51427;-27.442;153.014;2023-07-13T01:00:09;102777.34;;;20.59
64916;BMP280;51427;-27.442;153.014;2023-07-13T01:02:40;102765.47;;;20.75
64916;BMP280;51427;-27.442;153.014;2023-07-13T01:05:13;102762.19;;;20.09
64916;BMP280;51427;-27.442;153.014;2023-07-13T01:07:42;102768.88;;;20.59
64916;BMP280;51427;-27.442;153.014;2023-07-13T01:10:14;102761.41;;;20.73
64916;BMP280;51427;-27.442;153.014;2023-07-13T01:12:41;102752.22;;;21.01
64916;BMP280;51427;-27.442;153.014;2023-07-13T01:15:37;102751.63;;;20.96
64916;BMP280;51427;-27.442;153.014;2023-07-13T01:18:16;102728.13;;;21.06
64916;BMP280;51427;-27.442;153.014;2023-07-13T01:20:58;102730.94;;;21.02
64916;BMP280;51427;-27.442;153.014;2023-07-13T01:23:26;102711.97;;;21.07
64916;BMP280;51427;-27.442;153.014;2023-07-13T01:25:54;102717.13;;;21.66
64916;BMP280;51427;-27.442;153.014;2023-07-13T01:28:22;102712.72;;;21.38
64916;BMP280;51427;-27.442;153.014;2023-07-13T01:30:55;102716.03;;;21.25
64916;BMP280;51427;-27.442;153.014;2023-07-13T01:33:22;102720.50;;;21.66
64916;BMP280;51427;-27.442;153.014;2023-07-13T01:35:50;102710.41;;;21.79
64916;BMP280;51427;-27.442;153.014;2023-07-13T01:38:20;102698.72;;;21.32
64916;BMP280;51427;-27.442;153.014;2023-07-13T01:40:48;102698.59;;;22.05
64916;BMP280;51427;-27.442;153.014;2023-07-13T01:43:15;102687.91;;;22.28
64916;BMP280;51427;-27.442;153.014;2023-07-13T01:45:42;102691.13;;;22.16
64916;BMP280;51427;-27.442;153.014;2023-07-13T01:48:11;102671.66;;;22.29
64916;BMP280;51427;-27.442;153.014;2023-07-13T01:50:38;102676.09;;;21.98
64916;BMP280;51427;-27.442;153.014;2023-07-13T01:53:06;102666.34;;;22.18
64916;BMP280;51427;-27.442;153.014;2023-07-13T01:55:34;102661.84;;;22.63
64916;BMP280;51427;-27.442;153.014;2023-07-13T01:58:02;102644.56;;;22.80
64916;BMP280;51427;-27.442;153.014;2023-07-13T02:00:29;102636.69;;;22.57
64916;BMP280;51427;-27.442;153.014;2023-07-13T02:02:57;102645.59;;;21.39
64916;BMP280;51427;-27.442;153.014;2023-07-13T02:05:24;102638.16;;;22.21
64916;BMP280;51427;-27.442;153.014;2023-07-13T02:07:51;102627.56;;;22.27
64916;BMP280;51427;-27.442;153.014;2023-07-13T02:10:19;102626.03;;;21.83
64916;BMP280;51427;-27.442;153.014;2023-07-13T02:12:49;102610.75;;;21.83
64916;BMP280;51427;-27.442;153.014;2023-07-13T02:15:17;102610.56;;;21.72
64916;BMP280;51427;-27.442;153.014;2023-07-13T02:17:44;102612.16;;;21.59
64916;BMP280;51427;-27.442;153.014;2023-07-13T02:20:11;102621.25;;;21.49
64916;BMP280;51427;-27.442;153.014;2023-07-13T02:22:38;102613.13;;;21.14
64916;BMP280;51427;-27.442;153.014;2023-07-13T02:25:06;102609.31;;;21.07
64916;BMP280;51427;-27.442;153.014;2023-07-13T02:27:33;102609.19;;;21.37
64916;BMP280;51427;-27.442;153.014;2023-07-13T02:30:00;102613.63;;;22.19
64916;BMP280;51427;-27.442;153.014;2023-07-13T02:32:28;102598.69;;;21.57
64916;BMP280;51427;-27.442;153.014;2023-07-13T02:34:55;102602.44;;;21.23
64916;BMP280;51427;-27.442;153.014;2023-07-13T02:37:23;102594.78;;;20.93
64916;BMP280;51427;-27.442;153.014;2023-07-13T02:39:50;102595.97;;;20.88
64916;BMP280;51427;-27.442;153.014;2023-07-13T02:42:17;102596.31;;;20.82
64916;BMP280;51427;-27.442;153.014;2023-07-13T02:44:44;102600.00;;;20.77
64916;BMP280;51427;-27.442;153.014;2023-07-13T02:47:11;102598.19;;;21.37
64916;BMP280;51427;-27.442;153.014;2023-07-13T02:49:39;102597.63;;;21.75
64916;BMP280;51427;-27.442;153.014;2023-07-13T02:52:06;102602.72;;;21.89
64916;BMP280;51427;-27.442;153.014;2023-07-13T02:54:34;102592.56;;;22.15
64916;BMP280;51427;-27.442;153.014;2023-07-13T02:57:01;102589.41;;;22.26
64916;BMP280;51427;-27.442;153.014;2023-07-13T02:59:28;102578.66;;;22.07
64916;BMP280;51427;-27.442;153.014;2023-07-13T03:01:55;102576.66;;;21.98
64916;BMP280;51427;-27.442;153.014;2023-07-13T03:04:22;102585.25;;;21.83
64916;BMP280;51427;-27.442;153.014;2023-07-13T03:06:50;102566.59;;;22.89
64916;BMP280;51427;-27.442;153.014;2023-07-13T03:09:17;102577.75;;;22.74
64916;BMP280;51427;-27.442;153.014;2023-07-13T03:11:44;102570.34;;;22.57
64916;BMP280;51427;-27.442;153.014;2023-07-13T03:14:12;102571.41;;;22.67
64916;BMP280;51427;-27.442;153.014;2023-07-13T03:16:39;102564.28;;;21.92
64916;BMP280;51427;-27.442;153.014;2023-07-13T03:19:06;102580.25;;;21.25
64916;BMP280;51427;-27.442;153.014;2023-07-13T03:21:33;102574.81;;;21.31
64916;BMP280;51427;-27.442;153.014;2023-07-13T03:24:00;102578.22;;;21.02
64916;BMP280;51427;-27.442;153.014;2023-07-13T03:26:28;102576.00;;;20.96
64916;BMP280;51427;-27.442;153.014;2023-07-13T03:28:55;102580.91;;;20.99
64916;BMP280;51427;-27.442;153.014;2023-07-13T03:31:28;102572.91;;;20.91
64916;BMP280;51427;-27.442;153.014;2023-07-13T03:33:56;102568.91;;;21.01
64916;BMP280;51427;-27.442;153.014;2023-07-13T03:36:28;102573.31;;;20.84
64916;BMP280;51427;-27.442;153.014;2023-07-13T03:38:58;102574.56;;;20.77
64916;BMP280;51427;-27.442;153.014;2023-07-13T03:41:26;102566.53;;;20.98
64916;BMP280;51427;-27.442;153.014;2023-07-13T03:43:53;102571.97;;;20.92
64916;BMP280;51427;-27.442;153.014;2023-07-13T03:46:21;102573.88;;;20.89
64916;BMP280;51427;-27.442;153.014;2023-07-13T03:48:48;102570.75;;;20.99
64916;BMP280;51427;-27.442;153.014;2023-07-13T03:51:17;102568.22;;;20.84
64916;BMP280;51427;-27.442;153.014;2023-07-13T03:53:45;102573.50;;;20.81
64916;BMP280;51427;-27.442;153.014;2023-07-13T03:56:14;102562.31;;;20.83
64916;BMP280;51427;-27.442;153.014;2023-07-13T03:58:42;102558.78;;;20.86
64916;BMP280;51427;-27.442;153.014;2023-07-13T04:01:11;102554.88;;;20.80
64916;BMP280;51427;-27.442;153.014;2023-07-13T04:03:39;102556.66;;;21.07
64916;BMP280;51427;-27.442;153.014;2023-07-13T04:06:16;102552.84;;;21.00
64916;BMP280;51427;-27.442;153.014;2023-07-13T04:08:49;102556.75;;;21.06
64916;BMP280;51427;-27.442;153.014;2023-07-13T04:11:18;102551.09;;;21.01
64916;BMP280;51427;-27.442;153.014;2023-07-13T04:13:46;102546.19;;;20.98
64916;BMP280;51427;-27.442;153.014;2023-07-13T04:16:15;102550.53;;;20.96
64916;BMP280;51427;-27.442;153.014;2023-07-13T04:18:43;102546.69;;;20.89
64916;BMP280;51427;-27.442;153.014;2023-07-13T04:21:10;102542.59;;;20.87
64916;BMP280;51427;-27.442;153.014;2023-07-13T04:23:38;102537.25;;;20.91
64916;BMP280;51427;-27.442;153.014;2023-07-13T04:26:06;102535.22;;;20.82
64916;BMP280;51427;-27.442;153.014;2023-07-13T04:28:34;102534.81;;;20.90
64916;BMP280;51427;-27.442;153.014;2023-07-13T04:31:02;102529.72;;;20.90
64916;BMP280;51427;-27.442;153.014;2023-07-13T04:33:29;102529.03;;;20.86
64916;BMP280;51427;-27.442;153.014;2023-07-13T04:35:57;102530.69;;;20.87
64916;BMP280;51427;-27.442;153.014;2023-07-13T04:38:30;102531.25;;;20.92
64916;BMP280;51427;-27.442;153.014;2023-07-13T04:41:00;102530.44;;;20.91
64916;BMP280;51427;-27.442;153.014;2023-07-13T04:43:29;102525.97;;;20.95
64916;BMP280;51427;-27.442;153.014;2023-07-13T04:45:57;102524.25;;;20.95
64916;BMP280;51427;-27.442;153.014;2023-07-13T04:48:25;102512.88;;;21.30
64916;BMP280;51427;-27.442;153.014;2023-07-13T04:50:57;102510.94;;;21.20
64916;BMP280;51427;-27.442;153.014;2023-07-13T04:53:25;102514.22;;;21.22
64916;BMP280;51427;-27.442;153.014;2023-07-13T04:55:53;102513.47;;;21.20
64916;BMP280;51427;-27.442;153.014;2023-07-13T04:58:21;102516.59;;;21.38
64916;BMP280;51427;-27.442;153.014;2023-07-13T05:00:49;102513.53;;;21.61
64916;BMP280;51427;-27.442;153.014;2023-07-13T05:03:16;102510.91;;;21.63
64916;BMP280;51427;-27.442;153.014;2023-07-13T05:05:53;102500.97;;;21.44
64916;BMP280;51427;-27.442;153.014;2023-07-13T05:08:21;102508.84;;;21.40
64916;BMP280;51427;-27.442;153.014;2023-07-13T05:10:48;102501.47;;;21.08
64916;BMP280;51427;-27.442;153.014;2023-07-13T05:13:15;102505.81;;;21.06
64916;BMP280;51427;-27.442;153.014;2023-07-13T05:15:43;102506.38;;;21.11
64916;BMP280;51427;-27.442;153.014;2023-07-13T05:18:12;102500.41;;;21.39
64916;BMP280;51427;-27.442;153.014;2023-07-13T05:20:41;102507.31;;;21.37
64916;BMP280;51427;-27.442;153.014;2023-07-13T05:23:14;102498.31;;;21.32
64916;BMP280;51427;-27.442;153.014;2023-07-13T05:25:42;102496.03;;;21.28
64916;BMP280;51427;-27.442;153.014;2023-07-13T05:28:09;102495.31;;;21.26
64916;BMP280;51427;-27.442;153.014;2023-07-13T05:30:36;102501.03;;;20.86
64916;BMP280;51427;-27.442;153.014;2023-07-13T05:33:04;102500.25;;;20.86
64916;BMP280;51427;-27.442;153.014;2023-07-13T05:35:31;102494.03;;;20.76
64916;BMP280;51427;-27.442;153.014;2023-07-13T05:37:58;102505.31;;;20.86
64916;BMP280;51427;-27.442;153.014;2023-07-13T05:40:25;102505.31;;;20.86
64916;BMP280;51427;-27.442;153.014;2023-07-13T05:42:52;102499.44;;;20.85
64916;BMP280;51427;-27.442;153.014;2023-07-13T05:45:19;102488.91;;;20.91
64916;BMP280;51427;-27.442;153.014;2023-07-13T05:47:47;102494.50;;;20.82
64916;BMP280;51427;-27.442;153.014;2023-07-13T05:50:14;102494.16;;;20.88
64916;BMP280;51427;-27.442;153.014;2023-07-13T05:52:41;102491.75;;;20.71
64916;BMP280;51427;-27.442;153.014;2023-07-13T05:55:09;102486.03;;;20.68
64916;BMP280;51427;-27.442;153.014;2023-07-13T05:57:36;102487.31;;;20.59
64916;BMP280;51427;-27.442;153.014;2023-07-13T06:00:03;102483.25;;;20.57
64916;BMP280;51427;-27.442;153.014;2023-07-13T06:02:31;102478.22;;;20.55
64916;BMP280;51427;-27.442;153.014;2023-07-13T06:04:58;102481.69;;;20.54
64916;BMP280;51427;-27.442;153.014;2023-07-13T06:07:25;102481.13;;;20.49
64916;BMP280;51427;-27.442;153.014;2023-07-13T06:09:52;102476.28;;;20.45
64916;BMP280;51427;-27.442;153.014;2023-07-13T06:12:19;102473.09;;;20.42
64916;BMP280;51427;-27.442;153.014;2023-07-13T06:14:47;102472.34;;;20.40
64916;BMP280;51427;-27.442;153.014;2023-07-13T06:17:14;102471.63;;;20.38
64916;BMP280;51427;-27.442;153.014;2023-07-13T06:19:44;102471.88;;;20.33
64916;BMP280;51427;-27.442;153.014;2023-07-13T06:22:12;102467.22;;;20.26
64916;BMP280;51427;-27.442;153.014;2023-07-13T06:24:39;102469.94;;;20.23
64916;BMP280;51427;-27.442;153.014;2023-07-13T06:27:06;102468.22;;;20.08
64916;BMP280;51427;-27.442;153.014;2023-07-13T06:29:34;102474.50;;;20.16
64916;BMP280;51427;-27.442;153.014;2023-07-13T06:32:01;102482.31;;;20.13
64916;BMP280;51427;-27.442;153.014;2023-07-13T06:34:28;102488.06;;;20.01
64916;BMP280;51427;-27.442;153.014;2023-07-13T06:36:56;102497.56;;;19.98
64916;BMP280;51427;-27.442;153.014;2023-07-13T06:39:23;102491.66;;;19.98
64916;BMP280;51427;-27.442;153.014;2023-07-13T06:41:50;102498.63;;;19.94
64916;BMP280;51427;-27.442;153.014;2023-07-13T06:44:17;102506.84;;;19.82
64916;BMP280;51427;-27.442;153.014;2023-07-13T06:46:44;102511.22;;;19.80
64916;BMP280;51427;-27.442;153.014;2023-07-13T06:49:12;102510.94;;;19.69
64916;BMP280;51427;-27.442;153.014;2023-07-13T06:51:39;102507.59;;;19.69
64916;BMP280;51427;-27.442;153.014;2023-07-13T06:54:06;102522.25;;;19.64
64916;BMP280;51427;-27.442;153.014;2023-07-13T06:56:33;102518.31;;;19.58
64916;BMP280;51427;-27.442;153.014;2023-07-13T06:59:00;102519.84;;;19.46
64916;BMP280;51427;-27.442;153.014;2023-07-13T07:01:28;102516.22;;;19.50
64916;BMP280;51427;-27.442;153.014;2023-07-13T07:03:55;102521.72;;;19.42
64916;BMP280;51427;-27.442;153.014;2023-07-13T07:06:23;102528.41;;;19.43
64916;BMP280;51427;-27.442;153.014;2023-07-13T07:08:51;102532.09;;;19.38
64916;BMP280;51427;-27.442;153.014;2023-07-13T07:11:24;102546.75;;;19.33
64916;BMP280;51427;-27.442;153.014;2023-07-13T07:13:54;102555.41;;;19.29
64916;BMP280;51427;-27.442;153.014;2023-07-13T07:16:21;102565.47;;;19.13
64916;BMP280;51427;-27.442;153.014;2023-07-13T07:18:49;102564.38;;;19.19
64916;BMP280;51427;-27.442;153.014;2023-07-13T07:21:16;102570.78;;;19.09
64916;BMP280;51427;-27.442;153.014;2023-07-13T07:23:44;102579.38;;;19.07
64916;BMP280;51427;-27.442;153.014;2023-07-13T07:26:11;102573.63;;;19.03
64916;BMP280;51427;-27.442;153.014;2023-07-13T07:28:39;102574.03;;;18.94
64916;BMP280;51427;-27.442;153.014;2023-07-13T07:31:06;102577.00;;;18.85
64916;BMP280;51427;-27.442;153.014;2023-07-13T07:33:34;102577.75;;;18.87
64916;BMP280;51427;-27.442;153.014;2023-07-13T07:36:02;102582.75;;;18.89
64916;BMP280;51427;-27.442;153.014;2023-07-13T07:38:30;102591.69;;;18.79
64916;BMP280;51427;-27.442;153.014;2023-07-13T07:40:57;102597.25;;;18.68
64916;BMP280;51427;-27.442;153.014;2023-07-13T07:43:24;102597.72;;;18.76
64916;BMP280;51427;-27.442;153.014;2023-07-13T07:45:51;102607.19;;;18.73
64916;BMP280;51427;-27.442;153.014;2023-07-13T07:48:18;102616.31;;;18.77
64916;BMP280;51427;-27.442;153.014;2023-07-13T07:50:46;102633.03;;;18.81
64916;BMP280;51427;-27.442;153.014;2023-07-13T07:53:13;102634.44;;;18.69
64916;BMP280;51427;-27.442;153.014;2023-07-13T07:55:40;102633.34;;;18.57
64916;BMP280;51427;-27.442;153.014;2023-07-13T07:58:08;102627.56;;;18.53
64916;BMP280;51427;-27.442;153.014;2023-07-13T08:00:35;102636.97;;;18.51
64916;BMP280;51427;-27.442;153.014;2023-07-13T08:03:02;102634.56;;;18.66
64916;BMP280;51427;-27.442;153.014;2023-07-13T08:05:30;102652.59;;;18.60
64916;BMP280;51427;-27.442;153.014;2023-07-13T08:07:57;102652.09;;;18.53
64916;BMP280;51427;-27.442;153.014;2023-07-13T08:10:24;102655.47;;;18.53
64916;BMP280;51427;-27.442;153.014;2023-07-13T08:12:52;102666.72;;;18.48
64916;BMP280;51427;-27.442;153.014;2023-07-13T08:15:19;102665.06;;;18.47
64916;BMP280;51427;-27.442;153.014;2023-07-13T08:17:50;102659.28;;;18.25
64916;BMP280;51427;-27.442;153.014;2023-07-13T08:20:17;102653.72;;;18.17
64916;BMP280;51427;-27.442;153.014;2023-07-13T08:22:44;102656.41;;;18.14
64916;BMP280;51427;-27.442;153.014;2023-07-13T08:25:12;102654.47;;;18.19
64916;BMP280;51427;-27.442;153.014;2023-07-13T08:27:39;102654.34;;;18.22
64916;BMP280;51427;-27.442;153.014;2023-07-13T08:30:07;102662.09;;;18.19
64916;BMP280;51427;-27.442;153.014;2023-07-13T08:32:35;102657.84;;;18.19
64916;BMP280;51427;-27.442;153.014;2023-07-13T08:35:04;102663.69;;;18.21
64916;BMP280;51427;-27.442;153.014;2023-07-13T08:37:31;102663.00;;;18.18
64916;BMP280;51427;-27.442;153.014;2023-07-13T08:39:58;102669.44;;;18.05
64916;BMP280;51427;-27.442;153.014;2023-07-13T08:47:44;102666.56;;;17.94
64916;BMP280;51427;-27.442;153.014;2023-07-13T08:50:15;102661.75;;;18.07
64916;BMP280;51427;-27.442;153.014;2023-07-13T08:52:44;102664.09;;;17.93
64916;BMP280;51427;-27.442;153.014;2023-07-13T08:55:21;102667.50;;;17.92
64916;BMP280;51427;-27.442;153.014;2023-07-13T08:57:56;102662.16;;;17.98
64916;BMP280;51427;-27.442;153.014;2023-07-13T09:00:39;102659.25;;;17.87
64916;BMP280;51427;-27.442;153.014;2023-07-13T09:03:18;102652.09;;;17.76
64916;BMP280;51427;-27.442;153.014;2023-07-13T09:05:51;102649.19;;;17.85
64916;BMP280;51427;-27.442;153.014;2023-07-13T09:09:04;102651.78;;;17.84
64916;BMP280;51427;-27.442;153.014;2023-07-13T09:16:37;102653.03;;;17.74
64916;BMP280;51427;-27.442;153.014;2023-07-13T09:19:20;102654.81;;;17.72
64916;BMP280;51427;-27.442;153.014;2023-07-13T09:21:51;102656.34;;;17.76
64916;BMP280;51427;-27.442;153.014;2023-07-13T09:24:29;102655.91;;;17.67
64916;BMP280;51427;-27.442;153.014;2023-07-13T09:26:58;102647.47;;;17.66
64916;BMP280;51427;-27.442;153.014;2023-07-13T09:29:35;102636.91;;;17.57
64916;BMP280;51427;-27.442;153.014;2023-07-13T09:32:07;102633.00;;;17.50
64916;BMP280;51427;-27.442;153.014;2023-07-13T09:34:34;102636.41;;;17.49
64916;BMP280;51427;-27.442;153.014;2023-07-13T09:37:02;102628.94;;;17.66
64916;BMP280;51427;-27.442;153.014;2023-07-13T09:39:35;102636.09;;;17.56
64916;BMP280;51427;-27.442;153.014;2023-07-13T09:44:52;102643.00;;;17.53
64916;BMP280;51427;-27.442;153.014;2023-07-13T09:47:23;102644.56;;;17.55
64916;BMP280;51427;-27.442;153.014;2023-07-13T09:49:59;102642.09;;;17.54
64916;BMP280;51427;-27.442;153.014;2023-07-13T09:52:27;102642.84;;;17.36
64916;BMP280;51427;-27.442;153.014;2023-07-13T09:54:57;102638.72;;;17.33
64916;BMP280;51427;-27.442;153.014;2023-07-13T09:57:28;102629.16;;;17.40
64916;BMP280;51427;-27.442;153.014;2023-07-13T09:59:56;102632.72;;;17.36
64916;BMP280;51427;-27.442;153.014;2023-07-13T10:02:28;102633.44;;;17.39
64916;BMP280;51427;-27.442;153.014;2023-07-13T10:05:01;102628.41;;;17.38
64916;BMP280;51427;-27.442;153.014;2023-07-13T10:07:30;102630.88;;;17.20
64916;BMP280;51427;-27.442;153.014;2023-07-13T10:09:59;102627.47;;;17.19
64916;BMP280;51427;-27.442;153.014;2023-07-13T10:12:28;102632.50;;;16.78
64916;BMP280;51427;-27.442;153.014;2023-07-13T10:14:58;102642.38;;;16.63
64916;BMP280;51427;-27.442;153.014;2023-07-13T10:17:30;102641.47;;;16.64
64916;BMP280;51427;-27.442;153.014;2023-07-13T10:20:01;102645.38;;;16.72
64916;BMP280;51427;-27.442;153.014;2023-07-13T10:25:36;102661.81;;;15.91
64916;BMP280;51427;-27.442;153.014;2023-07-13T10:28:36;102654.22;;;16.15
64916;BMP280;51427;-27.442;153.014;2023-07-13T10:31:08;102652.66;;;16.35
64916;BMP280;51427;-27.442;153.014;2023-07-13T10:33:38;102658.28;;;16.19
64916;BMP280;51427;-27.442;153.014;2023-07-13T10:36:27;102653.06;;;16.25
64916;BMP280;51427;-27.442;153.014;2023-07-13T10:38:57;102647.63;;;16.11
64916;BMP280;51427;-27.442;153.014;2023-07-13T10:41:27;102649.16;;;15.92
64916;BMP280;51427;-27.442;153.014;2023-07-13T10:43:56;102645.13;;;15.87
64916;BMP280;51427;-27.442;153.014;2023-07-13T10:46:26;102649.56;;;15.55
64916;BMP280;51427;-27.442;153.014;2023-07-13T10:49:06;102649.03;;;15.45
64916;BMP280;51427;-27.442;153.014;2023-07-13T10:51:35;102651.22;;;15.56
64916;BMP280;51427;-27.442;153.014;2023-07-13T10:57:13;102658.72;;;15.83
64916;BMP280;51427;-27.442;153.014;2023-07-13T10:59:47;102661.22;;;15.59
64916;BMP280;51427;-27.442;153.014;2023-07-13T11:02:28;102660.47;;;15.57
64916;BMP280;51427;-27.442;153.014;2023-07-13T11:04:57;102679.75;;;15.84
64916;BMP280;51427;-27.442;153.014;2023-07-13T11:07:30;102674.63;;;15.35
64916;BMP280;51427;-27.442;153.014;2023-07-13T11:10:00;102686.91;;;15.45
64916;BMP280;51427;-27.442;153.014;2023-07-13T11:12:49;102681.13;;;15.16
64916;BMP280;51427;-27.442;153.014;2023-07-13T11:15:33;102678.25;;;14.99
64916;BMP280;51427;-27.442;153.014;2023-07-13T11:18:23;102685.00;;;15.26
64916;BMP280;51427;-27.442;153.014;2023-07-13T11:20:51;102683.94;;;14.77
64916;BMP280;51427;-27.442;153.014;2023-07-13T11:23:27;102691.00;;;14.66
64916;BMP280;51427;-27.442;153.014;2023-07-13T11:25:55;102686.44;;;14.79
64916;BMP280;51427;-27.442;153.014;2023-07-13T11:28:25;102690.13;;;14.67
64916;BMP280;51427;-27.442;153.014;2023-07-13T11:38:42;102693.78;;;14.86
64916;BMP280;51427;-27.442;153.014;2023-07-13T11:44:25;102708.81;;;14.60
64916;BMP280;51427;-27.442;153.014;2023-07-13T11:46:58;102712.31;;;14.55
64916;BMP280;51427;-27.442;153.014;2023-07-13T11:49:32;102718.09;;;14.58
64916;BMP280;51427;-27.442;153.014;2023-07-13T11:51:59;102715.44;;;14.63
64916;BMP280;51427;-27.442;153.014;2023-07-13T11:54:34;102723.97;;;14.59
64916;BMP280;51427;-27.442;153.014;2023-07-13T11:57:38;102712.44;;;14.81
64916;BMP280;51427;-27.442;153.014;2023-07-13T12:00:15;102717.50;;;14.79
64916;BMP280;51427;-27.442;153.014;2023-07-13T12:02:47;102721.00;;;14.45
64916;BMP280;51427;-27.442;153.014;2023-07-13T12:05:19;102721.63;;;14.53
64916;BMP280;51427;-27.442;153.014;2023-07-13T12:07:49;102722.59;;;14.48
64916;BMP280;51427;-27.442;153.014;2023-07-13T12:10:30;102728.41;;;14.51
64916;BMP280;51427;-27.442;153.014;2023-07-13T12:13:05;102732.66;;;14.17
64916;BMP280;51427;-27.442;153.014;2023-07-13T12:15:40;102723.97;;;14.29
64916;BMP280;51427;-27.442;153.014;2023-07-13T12:18:17;102730.97;;;14.18
64916;BMP280;51427;-27.442;153.014;2023-07-13T12:20:46;102731.00;;;14.16
64916;BMP280;51427;-27.442;153.014;2023-07-13T12:23:34;102723.91;;;14.30
64916;BMP280;51427;-27.442;153.014;2023-07-13T12:26:04;102736.59;;;14.27
64916;BMP280;51427;-27.442;153.014;2023-07-13T12:28:46;102728.53;;;14.15
64916;BMP280;51427;-27.442;153.014;2023-07-13T12:31:46;102730.84;;;14.22
64916;BMP280;51427;-27.442;153.014;2023-07-13T12:34:22;102731.56;;;14.27
64916;BMP280;51427;-27.442;153.014;2023-07-13T12:36:56;102732.56;;;14.22
64916;BMP280;51427;-27.442;153.014;2023-07-13T12:39:35;102721.56;;;14.24
64916;BMP280;51427;-27.442;153.014;2023-07-13T12:42:27;102728.28;;;14.24
64916;BMP280;51427;-27.442;153.014;2023-07-13T12:45:24;102725.38;;;13.74
64916;BMP280;51427;-27.442;153.014;2023-07-13T12:47:57;102723.94;;;13.97
64916;BMP280;51427;-27.442;153.014;2023-07-13T12:50:42;102726.31;;;14.04
64916;BMP280;51427;-27.442;153.014;2023-07-13T12:53:14;102728.34;;;13.89
64916;BMP280;51427;-27.442;153.014;2023-07-13T12:55:45;102728.06;;;14.00
64916;BMP280;51427;-27.442;153.014;2023-07-13T12:58:27;102736.06;;;13.82
64916;BMP280;51427;-27.442;153.014;2023-07-13T13:00:57;102726.09;;;13.77
64916;BMP280;51427;-27.442;153.014;2023-07-13T13:03:50;102719.44;;;14.09
64916;BMP280;51427;-27.442;153.014;2023-07-13T13:08:49;102722.31;;;13.95
64916;BMP280;51427;-27.442;153.014;2023-07-13T13:11:17;102722.75;;;13.78
64916;BMP280;51427;-27.442;153.014;2023-07-13T13:13:45;102726.13;;;13.76
64916;BMP280;51427;-27.442;153.014;2023-07-13T13:16:22;102722.59;;;13.84
64916;BMP280;51427;-27.442;153.014;2023-07-13T13:18:53;102726.06;;;13.79
64916;BMP280;51427;-27.442;153.014;2023-07-13T13:21:20;102725.72;;;13.94
64916;BMP280;51427;-27.442;153.014;2023-07-13T13:23:48;102720.91;;;13.85
64916;BMP280;51427;-27.442;153.014;2023-07-13T13:26:24;102719.94;;;13.89
64916;BMP280;51427;-27.442;153.014;2023-07-13T13:28:52;102722.47;;;13.89
64916;BMP280;51427;-27.442;153.014;2023-07-13T13:31:20;102724.25;;;13.84
64916;BMP280;51427;-27.442;153.014;2023-07-13T13:33:47;102724.66;;;13.69
64916;BMP280;51427;-27.442;153.014;2023-07-13T13:36:23;102715.06;;;13.48
64916;BMP280;51427;-27.442;153.014;2023-07-13T13:38:50;102720.94;;;13.49
64916;BMP280;51427;-27.442;153.014;2023-07-13T13:41:18;102722.44;;;13.56
64916;BMP280;51427;-27.442;153.014;2023-07-13T13:43:45;102718.03;;;13.65
64916;BMP280;51427;-27.442;153.014;2023-07-13T13:46:24;102717.53;;;13.86
64916;BMP280;51427;-27.442;153.014;2023-07-13T13:48:52;102713.13;;;13.94
64916;BMP280;51427;-27.442;153.014;2023-07-13T13:51:21;102713.22;;;13.89
64916;BMP280;51427;-27.442;153.014;2023-07-13T13:53:50;102705.03;;;13.81
64916;BMP280;51427;-27.442;153.014;2023-07-13T13:56:19;102712.91;;;13.68
64916;BMP280;51427;-27.442;153.014;2023-07-13T13:58:46;102708.19;;;13.55
64916;BMP280;51427;-27.442;153.014;2023-07-13T14:01:18;102714.69;;;13.30
64916;BMP280;51427;-27.442;153.014;2023-07-13T14:03:46;102706.63;;;13.16
64916;BMP280;51427;-27.442;153.014;2023-07-13T14:06:18;102718.41;;;13.12
64916;BMP280;51427;-27.442;153.014;2023-07-13T14:08:45;102711.03;;;13.05
64916;BMP280;51427;-27.442;153.014;2023-07-13T14:11:16;102723.41;;;13.12
64916;BMP280;51427;-27.442;153.014;2023-07-13T14:13:49;102710.19;;;13.42